This is the latest recevied weather packets stored in our database for station/object IT9FDP-13. If no packets are shown the sender has not sent any weather packets the latest 10 day(s).
| Time | Temp. | Humidity | Pressure | Rain* | Wind** | Luminosity | Snow |
|---|---|---|---|---|---|---|---|
| 1777097121 | 18.33° C | 59% | 1016.9 hPa | 0 mm | - | - | - |
| 1777096819 | 18.33° C | 59% | 1017 hPa | 0 mm | - | - | - |
| 1777096226 | 17.78° C | 59% | 1016.8 hPa | 0 mm | - | - | - |
| 1777095917 | 17.78° C | 59% | 1016.9 hPa | 0 mm | - | - | - |
| 1777095325 | 17.22° C | 60% | 1016.8 hPa | 0 mm | - | - | - |
| 1777093222 | 15.56° C | 64% | 1016.5 hPa | 0 mm | - | - | - |
| 1777092926 | 15.56° C | 64% | 1016.5 hPa | 0 mm | - | - | - |
| 1777086623 | 14.44° C | 68% | 1016.1 hPa | 0 mm | - | - | - |
| 1777084548 | 14.44° C | 68% | 1016.2 hPa | 0 mm | - | - | - |
| 1777082122 | 14.44° C | 67% | 1016.2 hPa | 0 mm | - | - | - |
| 1777080359 | 14.44° C | 67% | 1016.2 hPa | 0 mm | - | - | - |
| 1777078824 | 14.44° C | 65% | 1016.2 hPa | 0 mm | - | - | - |
| 1777077639 | 14.44° C | 65% | 1016.4 hPa | 0 mm | - | - | - |
| 1777076717 | 15° C | 64% | 1016.4 hPa | 0 mm | - | - | - |
| 1777076122 | 15° C | 64% | 1016.3 hPa | 0 mm | - | - | - |
| 1777074044 | 15° C | 63% | 1016.4 hPa | 0 mm | - | - | - |
| 1777071326 | 15.56° C | 62% | 1016.6 hPa | 0 mm | - | - | - |
| 1777069526 | 15.56° C | 62% | 1016.8 hPa | 0 mm | - | - | - |
| 1777069219 | 15.56° C | 62% | 1016.8 hPa | 0 mm | - | - | - |
| 1777064737 | 15.56° C | 60% | 1016.7 hPa | 0 mm | - | - | - |
| 1777062022 | 15.56° C | 59% | 1016.6 hPa | 0 mm | - | - | - |
| 1777061425 | 15.56° C | 59% | 1016.8 hPa | 0 mm | - | - | - |
| 1777059937 | 16.11° C | 58% | 1016.5 hPa | 0 mm | - | - | - |
| 1777059646 | 16.11° C | 58% | 1016.4 hPa | 0 mm | - | - | - |
| 1777059318 | 16.11° C | 58% | 1016.5 hPa | 0 mm | - | - | - |
* Rain latest hour (hover to see other rain measurements)
** Current wind speed in m/s (hover to see current wind gust speed)